createdAt,value
2022-12-25T00:00:28.920Z,9.80
2022-12-25T00:03:22.753Z,8.10
2022-12-25T00:06:06.223Z,14.10
2022-12-25T00:08:39.521Z,19.20
2022-12-25T00:11:11.991Z,18.00
2022-12-25T00:13:59.567Z,15.50
2022-12-25T00:16:42.052Z,12.90
2022-12-25T00:19:19.457Z,12.00
2022-12-25T00:21:58.388Z,11.70
2022-12-25T00:24:49.220Z,17.60
2022-12-25T00:27:31.052Z,16.80
2022-12-25T00:30:15.434Z,16.80
2022-12-25T00:32:47.513Z,20.40
2022-12-25T00:35:19.396Z,16.80
2022-12-25T00:37:58.390Z,22.90
2022-12-25T00:40:46.876Z,13.90
2022-12-25T00:43:28.247Z,15.30
2022-12-25T00:45:58.795Z,15.70
2022-12-25T00:48:38.883Z,13.50
2022-12-25T00:51:10.827Z,17.00
2022-12-25T00:53:46.751Z,14.90
2022-12-25T00:56:15.429Z,15.00
2022-12-25T00:58:47.157Z,13.70
2022-12-25T01:01:20.928Z,15.60
2022-12-25T01:04:00.137Z,17.10
2022-12-25T01:06:32.511Z,16.10
2022-12-25T01:09:26.666Z,17.10
2022-12-25T01:12:08.581Z,16.60
2022-12-25T01:14:37.787Z,15.80
2022-12-25T01:17:08.939Z,16.90
2022-12-25T01:19:41.582Z,14.20
2022-12-25T01:22:15.648Z,16.90
2022-12-25T01:24:45.354Z,33.30
2022-12-25T01:27:16.736Z,25.50
2022-12-25T01:29:53.060Z,26.90
2022-12-25T01:32:22.044Z,29.70
2022-12-25T01:37:28.327Z,38.30
2022-12-25T01:40:17.635Z,33.40
2022-12-25T01:42:54.047Z,28.80
2022-12-25T01:45:37.915Z,66.80
2022-12-25T01:48:14.772Z,42.10
2022-12-25T01:50:47.257Z,84.10
2022-12-25T01:53:18.682Z,82.70
2022-12-25T01:55:50.886Z,67.90
2022-12-25T01:58:22.039Z,71.60
2022-12-25T02:00:54.023Z,60.40
2022-12-25T02:03:34.033Z,42.70
2022-12-25T02:06:17.522Z,36.00
2022-12-25T02:08:57.983Z,24.80
2022-12-25T02:11:45.167Z,21.80
2022-12-25T02:14:14.205Z,19.40
2022-12-25T02:17:09.867Z,22.10
2022-12-25T02:20:17.229Z,21.80
2022-12-25T02:23:04.322Z,14.40
2022-12-25T02:25:58.913Z,18.60
2022-12-25T02:28:32.437Z,15.60
2022-12-25T02:31:10.625Z,16.00
2022-12-25T02:34:04.312Z,15.00
2022-12-25T02:36:50.048Z,11.60
2022-12-25T02:40:04.489Z,13.90
2022-12-25T02:43:13.175Z,15.40
2022-12-25T02:46:39.257Z,15.60
2022-12-25T02:49:38.399Z,17.30
2022-12-25T02:52:42.011Z,15.70
2022-12-25T02:55:32.245Z,13.30
2022-12-25T02:58:31.457Z,12.80
2022-12-25T03:01:35.133Z,16.30
2022-12-25T03:04:33.152Z,19.60
2022-12-25T03:07:14.360Z,26.30
2022-12-25T03:10:10.014Z,21.10
2022-12-25T03:12:49.797Z,26.70
2022-12-25T03:15:40.922Z,23.70
2022-12-25T03:18:17.916Z,25.50
2022-12-25T03:21:07.207Z,23.80
2022-12-25T03:24:05.542Z,18.40
2022-12-25T03:26:55.644Z,16.70
2022-12-25T03:41:49.542Z,21.60
2022-12-25T03:44:56.788Z,14.20
2022-12-25T03:47:54.096Z,20.40
2022-12-25T03:50:52.795Z,55.50
2022-12-25T03:54:02.125Z,62.50
2022-12-25T03:57:02.575Z,38.70
2022-12-25T03:59:55.043Z,33.20
2022-12-25T04:02:58.961Z,34.30
2022-12-25T04:05:53.067Z,38.80
2022-12-25T04:08:57.161Z,53.00
2022-12-25T04:12:07.002Z,17.30
2022-12-25T04:15:07.992Z,14.80
2022-12-25T04:17:58.804Z,35.20
2022-12-25T04:20:59.822Z,15.00
2022-12-25T04:23:49.605Z,14.80
2022-12-25T04:26:39.878Z,12.90
2022-12-25T04:29:35.545Z,11.20
2022-12-25T04:32:37.473Z,17.70
2022-12-25T04:35:30.710Z,14.90
2022-12-25T04:38:13.653Z,13.60
2022-12-25T04:40:55.785Z,14.60
2022-12-25T04:43:30.475Z,15.40
2022-12-25T04:46:08.021Z,16.30
2022-12-25T04:48:43.032Z,10.70
2022-12-25T04:51:27.294Z,9.10
2022-12-25T04:54:02.586Z,8.30
2022-12-25T04:56:43.357Z,15.90
2022-12-25T04:59:25.023Z,17.30
2022-12-25T05:02:06.145Z,30.50
2022-12-25T05:04:38.601Z,43.00
2022-12-25T05:07:31.799Z,27.50
2022-12-25T05:10:10.845Z,9.60
2022-12-25T05:12:48.688Z,13.80
2022-12-25T05:15:23.838Z,12.70
2022-12-25T05:18:10.942Z,17.40
2022-12-25T05:20:54.524Z,50.00
2022-12-25T05:23:37.829Z,39.10
2022-12-25T05:26:24.556Z,25.50
2022-12-25T05:29:17.896Z,19.40
2022-12-25T05:32:04.107Z,15.70
2022-12-25T21:54:15.627Z,24.50
2022-12-25T21:57:04.756Z,31.50
2022-12-25T21:59:47.582Z,28.90
2022-12-25T22:02:26.001Z,27.20
2022-12-25T22:05:35.303Z,29.50
2022-12-25T22:08:08.844Z,28.80
2022-12-25T22:10:42.539Z,28.70
2022-12-25T22:13:35.389Z,27.80
2022-12-25T22:16:41.590Z,26.60
2022-12-25T22:19:34.366Z,25.50
2022-12-25T22:22:06.308Z,27.20
2022-12-25T22:24:35.342Z,22.60
2022-12-25T22:27:12.850Z,21.10
2022-12-25T22:29:51.216Z,26.40
2022-12-25T22:35:11.825Z,26.40
2022-12-25T22:37:54.257Z,24.50
2022-12-25T22:40:31.004Z,23.80
2022-12-25T22:43:19.805Z,26.60
2022-12-25T22:46:02.479Z,23.40
2022-12-25T22:48:34.192Z,23.70
2022-12-25T22:51:23.152Z,24.40
2022-12-25T22:54:03.968Z,20.20
2022-12-25T22:56:45.219Z,24.70
2022-12-25T22:59:20.629Z,21.30
2022-12-25T23:02:03.196Z,22.80
2022-12-25T23:04:52.205Z,23.80
2022-12-25T23:07:41.476Z,22.10
2022-12-25T23:10:23.133Z,24.20
2022-12-25T23:13:20.122Z,26.70
2022-12-25T23:16:13.837Z,25.80
2022-12-25T23:19:04.017Z,27.30
2022-12-25T23:22:00.672Z,23.10
2022-12-25T23:25:07.592Z,25.50
2022-12-25T23:27:56.509Z,24.30
2022-12-25T23:30:36.537Z,21.40
2022-12-25T23:33:25.376Z,24.50
2022-12-25T23:36:08.641Z,23.00
2022-12-25T23:38:46.911Z,25.70
2022-12-25T23:41:35.733Z,25.30
2022-12-25T23:44:07.019Z,25.60
2022-12-25T23:46:40.359Z,24.30
2022-12-25T23:49:09.814Z,28.40
2022-12-25T23:51:49.286Z,21.80
2022-12-25T23:54:33.622Z,22.20
2022-12-25T23:57:12.285Z,20.10
2022-12-25T23:59:52.109Z,20.90
